Weather at Palm Beach County Park Airport

Public forecast

Using degrees Fahrenheit for public forecast. Weather courtesy of forecast.io.

Current aviation weather report (METAR) for Palm Beach County Park Airport

2024/05/21 00:35 (retrieved 26 minutes ago)

KLNA 210035Z AUTO 36009KT 10SM CLR 26/24 A2987 RMK AO2 T02550235 TSNO

Closest aviation forecast (TAF) to Palm Beach County Park Airport

Forecast is more than 12 hours old.

Closest forecast is Homestead ARB Airport, 68.2 nm (126.4 km) SSW.

2024/05/19 19:00 (retrieved 1 day ago)

TAF KHST 191900Z 1919/2101 21012KT 9999 SCT035 SCT180 QNH2986INS TEMPO 1920/1923 9000 -SHRA VCTS BKN025CB BECMG 1923/1924 25009KT 9999 NSW SCT025 SCT050 BKN120 QNH2985INS TEMPO 2010/2015 8000 -SHRA VCTS BKN020CB BKN080 BECMG 2014/2015 26010G15KT 9999 VCSH SCT025 BKN050 QNH2984INS BECMG 2022/2023 29009KT 9999 VCSH SCT025 BKN050 QNH2984INS TX35/1919Z TN25/2011Z